Time;durP1;ratioP1;P1;durP2;ratioP2;P2;SDS_P1;SDS_P2;PMS_P1;PMS_P2;Temp;Humidity;BMP_temperature;BMP_pressure;BME280_temperature;BME280_humidity;BME280_pressure;Samples;Min_cycle;Max_cycle;Signal;HPM_P1;HPM_P2
2021/12/27 00:02:03;;;;;;;52.20;25.00;;;;;;;-13.87;100.00;101457.63;1672870;84;21033;-77
2021/12/27 00:04:30;;;;;;;49.00;23.83;;;;;;;-13.83;100.00;101465.33;1650763;84;21040;-80
2021/12/27 00:06:57;;;;;;;50.40;24.27;;;;;;;-13.83;100.00;101459.06;1668038;84;21108;-77
2021/12/27 00:09:26;;;;;;;41.95;17.52;;;;;;;-13.76;100.00;101458.91;1665288;84;21560;-77
2021/12/27 00:11:55;;;;;;;42.25;16.90;;;;;;;-13.73;100.00;101455.66;1685404;84;21572;-77
2021/12/27 00:14:23;;;;;;;40.00;18.15;;;;;;;-13.69;100.00;101457.47;1656337;85;21731;-80
2021/12/27 00:16:50;;;;;;;61.42;23.85;;;;;;;-13.65;100.00;101455.55;1636176;86;21205;-79
2021/12/27 00:19:19;;;;;;;56.15;24.18;;;;;;;-13.59;100.00;101457.02;1618875;86;21120;-77
2021/12/27 00:21:48;;;;;;;54.58;26.37;;;;;;;-13.57;100.00;101454.56;1658008;85;21067;-77
2021/12/27 00:24:15;;;;;;;46.77;19.60;;;;;;;-13.60;100.00;101450.72;1662880;84;21658;-81
2021/12/27 00:26:48;;;;;;;46.85;20.02;;;;;;;-13.64;100.00;101449.75;1661438;84;21064;-79
2021/12/27 00:29:18;;;;;;;49.98;18.82;;;;;;;-13.73;100.00;101455.25;1660974;84;21105;-78
2021/12/27 00:31:45;;;;;;;44.27;18.65;;;;;;;-13.79;100.00;101458.78;1664696;84;21126;-76
2021/12/27 00:34:12;;;;;;;47.58;19.02;;;;;;;-13.82;100.00;101458.68;1659024;85;21115;-77
2021/12/27 00:36:40;;;;;;;40.12;17.87;;;;;;;-13.92;100.00;101464.96;1612388;87;21121;-78
2021/12/27 00:39:07;;;;;;;46.70;17.95;;;;;;;-14.10;100.00;101471.37;1587172;88;21110;-77
2021/12/27 00:41:35;;;;;;;44.53;17.90;;;;;;;-14.23;100.00;101465.02;1591789;89;21588;-76
2021/12/27 00:44:02;;;;;;;46.98;16.20;;;;;;;-14.33;100.00;101462.92;1659122;85;21044;-77
2021/12/27 00:46:30;;;;;;;39.38;14.98;;;;;;;-14.41;100.00;101461.38;1634731;85;21086;-77
2021/12/27 00:48:57;;;;;;;42.13;15.65;;;;;;;-14.39;100.00;101468.94;1663594;85;21075;-77
2021/12/27 00:51:24;;;;;;;50.25;18.50;;;;;;;-14.33;100.00;101465.05;1663436;85;21044;-76
2021/12/27 00:53:51;;;;;;;43.73;17.98;;;;;;;-14.28;100.00;101459.82;1638750;85;21380;-76
2021/12/27 00:56:18;;;;;;;42.08;16.48;;;;;;;-14.22;100.00;101461.72;1639348;85;21035;-77
2021/12/27 00:58:47;;;;;;;42.58;19.12;;;;;;;-14.21;100.00;101458.43;1660433;85;21600;-76
2021/12/27 01:01:14;;;;;;;44.25;22.20;;;;;;;-14.22;100.00;101462.13;1662090;84;21114;-77
2021/12/27 01:03:41;;;;;;;44.93;22.02;;;;;;;-14.30;100.00;101469.31;1623233;86;21054;-76
2021/12/27 01:06:10;;;;;;;42.27;21.62;;;;;;;-14.33;100.00;101475.06;1669088;84;21083;-77
2021/12/27 01:08:37;;;;;;;45.80;22.70;;;;;;;-14.33;100.00;101468.80;1641208;84;21146;-77
2021/12/27 01:13:44;;;;;;;42.78;21.82;;;;;;;-14.29;100.00;101469.38;1645320;86;21113;-85
2021/12/27 01:16:16;;;;;;;52.73;23.30;;;;;;;-14.25;100.00;101476.60;1635967;86;21154;-78
2021/12/27 01:18:49;;;;;;;49.80;23.98;;;;;;;-14.21;100.00;101474.70;1653778;84;21505;-76
2021/12/27 01:21:20;;;;;;;49.85;23.27;;;;;;;-14.18;100.00;101476.05;1666245;85;21067;-76
2021/12/27 01:23:49;;;;;;;45.95;23.20;;;;;;;-14.22;100.00;101474.23;1643230;86;21588;-78
2021/12/27 01:26:19;;;;;;;42.95;20.08;;;;;;;-14.33;100.00;101477.56;1652883;86;21185;-77
2021/12/27 01:28:47;;;;;;;49.63;22.22;;;;;;;-14.46;100.00;101474.95;1645693;84;21064;-77
2021/12/27 01:31:14;;;;;;;43.42;21.95;;;;;;;-14.59;100.00;101481.09;1649650;85;22083;-76
2021/12/27 01:33:43;;;;;;;44.48;19.20;;;;;;;-14.78;100.00;101482.41;1648246;85;21151;-77
2021/12/27 01:36:10;;;;;;;40.52;20.55;;;;;;;-14.97;100.00;101483.24;1652269;85;21081;-77
2021/12/27 01:38:40;;;;;;;51.88;22.90;;;;;;;-15.09;100.00;101489.44;1637706;86;21048;-76
2021/12/27 01:41:10;;;;;;;61.37;25.10;;;;;;;-15.17;100.00;101492.38;1650445;85;21115;-78
2021/12/27 01:43:39;;;;;;;51.48;24.50;;;;;;;-15.28;100.00;101494.03;1634692;86;21060;-77
2021/12/27 01:46:19;;;;;;;49.23;24.10;;;;;;;-15.33;100.00;101499.59;1599537;88;21103;-77
2021/12/27 01:48:54;;;;;;;57.40;26.15;;;;;;;-15.36;100.00;101505.70;1675525;84;21037;-76
2021/12/27 01:51:19;;;;;;;44.45;20.65;;;;;;;-15.35;100.00;101498.29;1667146;84;21004;-76
2021/12/27 01:53:48;;;;;;;48.52;20.08;;;;;;;-15.32;100.00;101493.41;1669087;84;21006;-78
2021/12/27 01:56:20;;;;;;;40.67;20.15;;;;;;;-15.26;100.00;101490.34;1685190;84;21600;-77
2021/12/27 01:58:51;;;;;;;41.75;19.40;;;;;;;-15.21;100.00;101496.79;1609005;86;21020;-78
2021/12/27 02:01:19;;;;;;;59.40;25.00;;;;;;;-15.17;100.00;101492.38;1611919;86;21103;-77
2021/12/27 02:03:49;;;;;;;44.98;22.82;;;;;;;-15.15;100.00;101500.42;1652540;84;21541;-77
2021/12/27 02:06:16;;;;;;;44.60;20.97;;;;;;;-15.18;100.00;101507.77;1648682;86;21577;-76
2021/12/27 02:08:45;;;;;;;46.48;22.50;;;;;;;-15.30;100.00;101505.59;1651311;85;21134;-77
2021/12/27 02:11:16;;;;;;;48.10;23.00;;;;;;;-15.41;100.00;101505.11;1671402;84;20976;-78
2021/12/27 02:13:45;;;;;;;50.90;22.87;;;;;;;-15.48;100.00;101502.25;1686948;84;21040;-75
2021/12/27 02:16:20;;;;;;;53.90;23.45;;;;;;;-15.59;100.00;101508.00;1653964;84;21257;-76
2021/12/27 02:18:49;;;;;;;46.30;22.17;;;;;;;-15.67;100.00;101513.04;1648637;86;21029;-77
2021/12/27 02:21:19;;;;;;;52.88;23.67;;;;;;;-15.77;100.00;101514.27;1638636;86;21046;-76
2021/12/27 02:23:48;;;;;;;45.48;20.40;;;;;;;-15.96;100.00;101520.06;1669607;84;21111;-76
2021/12/27 02:26:15;;;;;;;35.43;17.90;;;;;;;-15.96;100.00;101520.06;1668641;84;21084;-77
2021/12/27 02:28:42;;;;;;;39.67;18.42;;;;;;;-16.00;100.00;101521.55;1683339;83;21039;-77
2021/12/27 02:31:09;;;;;;;39.63;18.85;;;;;;;-16.02;100.00;101529.35;1656869;84;21644;-77
2021/12/27 02:33:42;;;;;;;38.23;19.37;;;;;;;-16.07;100.00;101529.53;1669331;85;21111;-76
2021/12/27 02:36:11;;;;;;;45.55;19.07;;;;;;;-16.13;100.00;101526.72;1669006;84;21041;-77
2021/12/27 02:38:43;;;;;;;46.50;20.60;;;;;;;-16.12;100.00;101529.69;1676960;84;21095;-76
2021/12/27 02:41:11;;;;;;;60.28;26.48;;;;;;;-16.08;100.00;101536.14;1647166;85;21096;-79
2021/12/27 02:43:42;;;;;;;57.93;27.40;;;;;;;-16.07;100.00;101532.88;1648870;85;21057;-77
2021/12/27 02:46:14;;;;;;;92.92;41.90;;;;;;;-16.07;100.00;101540.77;1635013;84;22461;-76
2021/12/27 02:48:46;;;;;;;69.65;28.83;;;;;;;-16.09;100.00;101537.33;1653756;85;21525;-78
2021/12/27 02:51:17;;;;;;;59.85;26.73;;;;;;;-16.10;100.00;101541.84;1657257;85;21573;-76
2021/12/27 02:53:46;;;;;;;49.30;22.27;;;;;;;-16.09;100.00;101537.33;1644353;85;21056;-76
2021/12/27 02:56:14;;;;;;;50.40;22.87;;;;;;;-16.02;100.00;101538.09;1642714;85;21141;-77
2021/12/27 02:58:41;;;;;;;52.38;24.57;;;;;;;-15.93;100.00;101537.28;1588384;88;21115;-77
2021/12/27 03:01:21;;;;;;;60.12;26.40;;;;;;;-15.83;100.00;101541.47;1653641;85;21070;-76
2021/12/27 03:03:49;;;;;;;49.55;23.18;;;;;;;-15.73;100.00;101541.06;1650475;84;21635;-76
2021/12/27 03:06:16;;;;;;;42.88;19.98;;;;;;;-15.62;100.00;101547.44;1682854;84;21181;-76
2021/12/27 03:08:46;;;;;;;43.68;21.42;;;;;;;-15.53;100.00;101553.64;1658635;86;21210;-79
2021/12/27 03:11:13;;;;;;;43.10;21.27;;;;;;;-15.51;100.00;101558.33;1657139;86;21146;-84
2021/12/27 03:13:51;;;;;;;53.85;24.00;;;;;;;-15.49;100.00;101554.23;1663567;85;21104;-79
2021/12/27 03:16:20;;;;;;;47.65;23.25;;;;;;;-15.48;100.00;101553.45;1654923;84;21035;-76
2021/12/27 03:18:53;;;;;;;54.10;24.75;;;;;;;-15.51;100.00;101554.58;1670647;84;21574;-79
2021/12/27 03:21:21;;;;;;;72.50;28.98;;;;;;;-15.52;100.00;101557.45;1657667;84;21043;-77
2021/12/27 03:23:48;;;;;;;65.30;26.17;;;;;;;-15.50;100.00;101553.80;1670616;84;21207;-78
2021/12/27 03:26:16;;;;;;;59.90;24.65;;;;;;;-15.51;100.00;101559.58;1675469;84;21048;-85
2021/12/27 03:28:43;;;;;;;49.42;20.88;;;;;;;-15.55;100.00;101561.92;1625964;85;21060;-84
2021/12/27 03:31:10;;;;;;;48.50;22.52;;;;;;;-15.58;100.00;101570.91;1645392;84;21059;-86
2021/12/27 03:33:39;;;;;;;43.52;19.87;;;;;;;-15.68;100.00;101581.23;1670704;83;22520;-77
2021/12/27 03:36:09;;;;;;;37.45;18.15;;;;;;;-15.76;100.00;101579.64;1666055;84;21151;-80
2021/12/27 03:38:46;;;;;;;40.88;17.82;;;;;;;-15.82;100.00;101571.87;1666385;84;21125;-78
2021/12/27 03:41:18;;;;;;;35.92;16.55;;;;;;;-15.85;100.00;101579.23;1661919;84;21584;-76
2021/12/27 03:43:48;;;;;;;38.40;16.65;;;;;;;-15.92;100.00;101578.06;1646908;84;21095;-78
2021/12/27 03:46:16;;;;;;;37.70;16.42;;;;;;;-15.95;100.00;101581.27;1648136;84;21039;-77
2021/12/27 03:48:44;;;;;;;39.73;16.93;;;;;;;-15.98;100.00;101574.88;1642206;84;21070;-77
2021/12/27 03:51:11;;;;;;;39.65;15.80;;;;;;;-16.00;100.00;101575.22;1644140;85;21048;-77
2021/12/27 03:53:39;;;;;;;33.33;16.23;;;;;;;-16.01;100.00;101583.48;1601752;87;21526;-77
2021/12/27 03:56:08;;;;;;;42.35;19.15;;;;;;;-16.00;100.00;101587.69;1640674;86;21034;-78
2021/12/27 03:59:18;;;;;;;48.17;19.65;;;;;;;-16.01;100.00;101582.23;1639757;86;21637;-77
2021/12/27 04:01:29;;;;;;;49.67;22.37;;;;;;;-15.99;100.00;101589.78;1665830;84;22045;-77
2021/12/27 04:03:57;;;;;;;48.73;21.60;;;;;;;-16.03;100.00;101585.91;1670772;84;21112;-83
2021/12/27 04:06:27;;;;;;;50.92;23.27;;;;;;;-16.05;100.00;101596.58;1686491;84;21059;-76
2021/12/27 04:08:54;;;;;;;48.05;21.20;;;;;;;-16.09;100.00;101600.96;1650122;85;21112;-76
2021/12/27 04:11:24;;;;;;;45.43;20.50;;;;;;;-16.11;100.00;101608.75;1649674;85;21153;-77
2021/12/27 04:13:56;;;;;;;47.67;22.02;;;;;;;-16.15;100.00;101611.48;1653549;84;21140;-77
2021/12/27 04:16:25;;;;;;;57.90;24.52;;;;;;;-16.16;100.00;101606.43;1637339;86;21171;-77
2021/12/27 04:18:52;;;;;;;62.88;23.32;;;;;;;-16.19;100.00;101609.23;1648909;85;21033;-79
2021/12/27 04:21:18;;;;;;;62.30;25.37;;;;;;;-16.16;100.00;101611.42;1658513;84;21079;-77
2021/12/27 04:23:45;;;;;;;62.40;24.18;;;;;;;-16.14;100.00;101611.11;1662202;84;21099;-82
2021/12/27 04:26:13;;;;;;;57.53;24.45;;;;;;;-16.12;100.00;101623.25;1646387;86;21076;-80
2021/12/27 04:28:40;;;;;;;64.97;24.47;;;;;;;-16.12;100.00;101622.00;1661023;84;21033;-77
2021/12/27 04:31:07;;;;;;;92.47;32.25;;;;;;;-16.15;100.00;101633.10;1661119;86;21064;-79
2021/12/27 04:33:36;;;;;;;90.10;30.90;;;;;;;-16.18;100.00;101638.77;1661320;86;21035;-85
2021/12/27 04:36:03;;;;;;;63.48;24.45;;;;;;;-16.24;100.00;101634.35;1661491;86;21596;-79
2021/12/27 04:38:30;;;;;;;57.83;23.80;;;;;;;-16.31;100.00;101639.81;1647873;85;21204;-79
2021/12/27 04:40:57;;;;;;;58.98;24.35;;;;;;;-16.33;100.00;101646.35;1673002;84;21183;-78
2021/12/27 04:43:25;;;;;;;60.10;25.30;;;;;;;-16.34;100.00;101655.45;1675084;84;21134;-78
2021/12/27 04:45:54;;;;;;;48.17;19.62;;;;;;;-16.35;100.00;101655.02;1682907;83;21036;-78
2021/12/27 04:48:24;;;;;;;57.98;21.37;;;;;;;-16.34;100.00;101655.45;1653200;85;21021;-78
2021/12/27 04:50:53;;;;;;;71.85;26.50;;;;;;;-16.38;100.00;101654.84;1674909;84;21163;-79
2021/12/27 04:53:20;;;;;;;60.10;21.85;;;;;;;-16.41;100.00;101653.83;1652681;84;21494;-78
2021/12/27 04:55:47;;;;;;;66.22;25.17;;;;;;;-16.41;100.00;101657.17;1674856;84;21140;-79
2021/12/27 04:58:20;;;;;;;62.27;23.30;;;;;;;-16.42;100.00;101663.33;1668310;84;21052;-81
2021/12/27 05:00:48;;;;;;;85.57;25.57;;;;;;;-16.47;100.00;101669.73;1673173;84;21604;-79
2021/12/27 05:03:15;;;;;;;78.60;25.88;;;;;;;-16.48;100.00;101666.77;1656732;84;21156;-80
2021/12/27 05:05:46;;;;;;;73.47;25.68;;;;;;;-16.53;100.00;101668.61;1650908;84;21160;-79
2021/12/27 05:08:14;;;;;;;66.07;23.40;;;;;;;-16.57;100.00;101664.26;1647450;84;21083;-78
2021/12/27 05:10:42;;;;;;;66.50;27.62;;;;;;;-16.67;100.00;101664.17;1662101;83;21655;-77
2021/12/27 05:13:09;;;;;;;77.50;28.92;;;;;;;-16.71;100.00;101665.17;1623026;86;22291;-78
2021/12/27 05:15:36;;;;;;;78.92;29.87;;;;;;;-16.73;100.00;101666.72;1657996;86;21788;-78
2021/12/27 05:18:12;;;;;;;74.97;31.87;;;;;;;-16.71;100.00;101677.64;1646294;85;21521;-78
2021/12/27 05:20:38;;;;;;;129.03;44.60;;;;;;;-16.73;100.00;101668.81;1625364;85;21042;-77
2021/12/27 05:23:05;;;;;;;154.35;46.98;;;;;;;-16.72;100.00;101678.41;1646920;84;21685;-77
2021/12/27 05:25:32;;;;;;;99.25;36.53;;;;;;;-16.79;100.00;101682.60;1676292;83;21047;-77
2021/12/27 05:27:59;;;;;;;82.95;29.35;;;;;;;-16.84;100.00;101684.84;1688294;84;21528;-78
2021/12/27 05:30:26;;;;;;;69.45;26.40;;;;;;;-16.80;100.00;101684.63;1679835;83;21567;-78
2021/12/27 05:32:53;;;;;;;70.67;29.07;;;;;;;-16.51;100.00;101688.66;1686056;84;21017;-79
2021/12/27 05:35:21;;;;;;;72.80;29.12;;;;;;;-16.21;100.00;101691.88;1692192;84;21461;-77
2021/12/27 05:37:48;;;;;;;87.00;32.65;;;;;;;-15.90;100.00;101700.06;1672606;84;21046;-77
2021/12/27 05:40:20;;;;;;;92.22;32.60;;;;;;;-15.77;100.00;101711.50;1675770;84;21058;-77
2021/12/27 05:42:49;;;;;;;87.17;31.12;;;;;;;-15.77;100.00;101714.00;1669926;83;21212;-81
2021/12/27 05:45:17;;;;;;;76.55;29.20;;;;;;;-15.87;100.00;101718.55;1673301;84;21148;-77
2021/12/27 05:47:45;;;;;;;70.83;23.83;;;;;;;-16.01;100.00;101721.99;1624188;85;21700;-77
2021/12/27 05:50:15;;;;;;;52.95;19.45;;;;;;;-16.15;100.00;101724.17;1653171;84;21087;-82
2021/12/27 05:52:42;;;;;;;74.27;26.85;;;;;;;-16.07;100.00;101735.01;1646008;85;22010;-79
2021/12/27 05:55:11;;;;;;;78.78;26.57;;;;;;;-15.85;100.00;101730.26;1660381;84;21101;-75
2021/12/27 05:57:38;;;;;;;77.80;25.40;;;;;;;-15.82;100.00;101742.88;1662341;84;21032;-79
2021/12/27 06:00:10;;;;;;;64.72;20.65;;;;;;;-15.87;100.00;101737.68;1651760;85;21047;-76
2021/12/27 06:02:44;;;;;;;58.58;22.73;;;;;;;-15.91;100.00;101744.16;1673175;84;21039;-85
2021/12/27 06:05:12;;;;;;;57.85;20.65;;;;;;;-15.99;100.00;101742.91;1668500;84;21251;-76
2021/12/27 06:07:39;;;;;;;56.25;20.45;;;;;;;-16.03;100.00;101743.51;1670658;84;21123;-76
2021/12/27 06:10:08;;;;;;;44.18;16.15;;;;;;;-16.08;100.00;101748.66;1668177;84;21096;-77
2021/12/27 06:12:37;;;;;;;33.00;13.35;;;;;;;-16.10;100.00;101748.97;1673529;83;21330;-78
2021/12/27 06:15:05;;;;;;;77.17;26.87;;;;;;;-16.12;100.00;101758.00;1638053;86;21129;-75
2021/12/27 06:17:33;;;;;;;88.27;29.77;;;;;;;-16.15;100.00;101771.59;1664668;84;21141;-80
2021/12/27 06:20:07;;;;;;;81.97;30.10;;;;;;;-16.17;100.00;101766.89;1671922;84;21183;-76
2021/12/27 06:22:40;;;;;;;76.85;28.95;;;;;;;-16.18;100.00;101772.25;1645057;84;21671;-76
2021/12/27 06:25:08;;;;;;;90.38;34.10;;;;;;;-16.22;100.00;101779.97;1656698;84;21416;-84
2021/12/27 06:27:35;;;;;;;66.00;25.25;;;;;;;-16.21;100.00;101778.34;1672074;83;21150;-79
2021/12/27 06:30:07;;;;;;;60.20;21.05;;;;;;;-16.26;100.00;101785.59;1652012;84;21116;-79
2021/12/27 06:32:38;;;;;;;75.17;26.07;;;;;;;-16.27;100.00;101791.35;1600794;87;21067;-75
2021/12/27 06:35:10;;;;;;;68.70;25.40;;;;;;;-16.24;100.00;101796.52;1642118;86;21566;-76
2021/12/27 06:37:41;;;;;;;72.42;24.25;;;;;;;-16.23;100.00;101798.23;1655360;85;21033;-77
2021/12/27 06:40:11;;;;;;;85.47;31.62;;;;;;;-16.20;100.00;101793.80;1638876;85;21593;-78
2021/12/27 06:42:40;;;;;;;86.22;40.63;;;;;;;-16.17;100.00;101790.20;1657446;84;21229;-79
2021/12/27 06:45:09;;;;;;;70.62;30.45;;;;;;;-16.16;100.00;101785.68;1653180;84;21450;-78
2021/12/27 06:47:38;;;;;;;62.17;28.60;;;;;;;-16.13;100.00;101784.97;1595159;88;21147;-78
2021/12/27 06:50:07;;;;;;;63.25;27.30;;;;;;;-16.08;100.00;101784.84;1671726;84;21191;-78
2021/12/27 06:52:34;;;;;;;53.17;23.50;;;;;;;-16.00;100.00;101783.61;1648321;85;21048;-80
2021/12/27 06:55:01;;;;;;;70.55;30.30;;;;;;;-15.90;100.00;101789.93;1669767;84;21096;-77
2021/12/27 06:57:30;;;;;;;62.50;26.45;;;;;;;-15.85;100.00;101786.43;1670473;84;21119;-81
2021/12/27 07:00:01;;;;;;;49.88;21.15;;;;;;;-15.81;100.00;101793.25;1680106;84;21060;-79
2021/12/27 07:02:30;;;;;;;69.32;27.25;;;;;;;-15.79;100.00;101792.94;1640005;84;21075;-77
2021/12/27 07:04:57;;;;;;;71.12;30.37;;;;;;;-15.73;100.00;101795.38;1655183;84;21663;-78
2021/12/27 07:07:25;;;;;;;57.85;28.32;;;;;;;-15.60;100.00;101803.11;1649032;85;39276;-77
2021/12/27 07:09:53;;;;;;;61.13;29.07;;;;;;;-15.45;100.00;101807.16;1666310;83;21003;-79
2021/12/27 07:12:20;;;;;;;48.30;18.20;;;;;;;-15.30;100.00;101810.83;1655428;84;21103;-77
2021/12/27 07:14:48;;;;;;;56.23;18.90;;;;;;;-15.17;100.00;101804.77;1642992;85;21174;-77
2021/12/27 07:17:16;;;;;;;54.65;21.68;;;;;;;-14.99;100.00;101812.33;1664506;85;21176;-85
2021/12/27 07:19:43;;;;;;;53.42;20.60;;;;;;;-14.87;100.00;101812.06;1673658;84;21170;-85
2021/12/27 07:22:12;;;;;;;63.80;23.70;;;;;;;-14.71;100.00;101818.64;1656132;85;21104;-85
2021/12/27 07:24:39;;;;;;;48.15;18.65;;;;;;;-14.56;100.00;101816.83;1633529;87;21760;-78
2021/12/27 07:27:06;;;;;;;53.15;21.55;;;;;;;-14.42;100.00;101807.47;1609634;87;21105;-77
2021/12/27 07:29:34;;;;;;;51.83;20.35;;;;;;;-14.34;100.00;101809.94;1632019;86;21078;-78
2021/12/27 07:32:01;;;;;;;62.20;23.57;;;;;;;-14.30;100.00;101806.77;1669434;84;21973;-78
2021/12/27 07:34:28;;;;;;;57.35;20.72;;;;;;;-14.21;100.00;101801.72;1653424;84;21627;-77
2021/12/27 07:36:59;;;;;;;63.00;21.27;;;;;;;-14.12;100.00;101813.41;1651535;84;21101;-79
2021/12/27 07:39:27;;;;;;;;;;;;;;;-14.10;100.00;101808.49;1645781;85;21713;-76
2021/12/27 07:41:54;;;;;;;47.85;18.42;;;;;;;-14.24;100.00;101813.70;1639841;86;20190;-77
2021/12/27 07:44:22;;;;;;;50.58;20.88;;;;;;;-14.33;100.00;101809.15;1648100;85;21153;-79
2021/12/27 07:46:51;;;;;;;56.55;21.15;;;;;;;-14.42;100.00;101806.63;1643083;86;21221;-78
2021/12/27 07:49:22;;;;;;;65.52;23.83;;;;;;;-14.42;100.00;101811.63;1637302;85;21184;-77
2021/12/27 07:51:51;;;;;;;71.53;26.57;;;;;;;-14.33;100.00;101822.92;1677856;83;21068;-76
2021/12/27 07:54:18;;;;;;;81.02;27.70;;;;;;;-14.19;100.00;101818.55;1658609;83;21089;-77
2021/12/27 07:56:45;;;;;;;77.72;28.05;;;;;;;-14.03;100.00;101814.23;1669173;84;21135;-77
2021/12/27 07:59:12;;;;;;;79.50;28.12;;;;;;;-13.84;100.00;101819.66;1655061;84;21074;-77
2021/12/27 08:01:41;;;;;;;71.50;28.50;;;;;;;-13.67;100.00;101811.25;1666040;83;21028;-77
2021/12/27 08:04:11;;;;;;;64.97;24.37;;;;;;;-13.49;100.00;101806.54;1676220;84;21557;-77
2021/12/27 08:06:38;;;;;;;69.27;25.65;;;;;;;-13.32;100.00;101808.08;1654156;84;21660;-87
2021/12/27 08:09:06;;;;;;;74.77;26.82;;;;;;;-13.21;100.00;101805.17;1676970;83;21101;-77
2021/12/27 08:11:34;;;;;;;81.35;31.00;;;;;;;-13.15;100.00;101806.67;1639518;84;21115;-78
2021/12/27 08:14:04;;;;;;;92.42;33.40;;;;;;;-13.06;100.00;101807.05;1646093;85;21511;-79
2021/12/27 08:16:33;;;;;;;103.97;36.30;;;;;;;-12.96;100.00;101803.67;1631905;85;21135;-80
2021/12/27 08:19:00;;;;;;;87.62;35.43;;;;;;;-12.91;100.00;101806.83;1627525;86;21080;-85
2021/12/27 08:21:29;;;;;;;94.28;33.45;;;;;;;-12.88;100.00;101801.92;1646098;85;21166;-77
2021/12/27 08:23:56;;;;;;;86.50;32.90;;;;;;;-12.83;100.00;101800.02;1641430;86;21753;-78
2021/12/27 08:26:23;;;;;;;154.68;53.23;;;;;;;-12.80;100.00;101801.36;1645152;86;21136;-78
2021/12/27 08:28:53;;;;;;;115.40;43.33;;;;;;;-12.79;100.00;101794.30;1646004;85;21487;-78
2021/12/27 08:31:20;;;;;;;86.55;37.28;;;;;;;-12.78;100.00;101791.88;1659059;84;21138;-81
2021/12/27 08:33:48;;;;;;;68.62;31.02;;;;;;;-12.75;100.00;101791.98;1667057;83;21170;-78
2021/12/27 08:36:15;;;;;;;82.78;32.98;;;;;;;-12.82;100.00;101797.55;1619558;85;21507;-78
2021/12/27 08:38:44;;;;;;;95.15;34.65;;;;;;;-13.00;100.00;101797.67;1661295;84;21366;-77
2021/12/27 08:41:16;;;;;;;77.50;28.67;;;;;;;-13.07;100.00;101801.58;1645050;85;21214;-77
2021/12/27 08:43:42;;;;;;;;;;;;;;;-13.08;100.00;101791.08;1622196;85;21166;-76
2021/12/27 08:46:10;;;;;;;81.55;32.67;;;;;;;-13.01;100.00;101791.78;1667560;84;21136;-77
2021/12/27 08:48:40;;;;;;;87.88;34.38;;;;;;;-12.97;100.00;101795.27;1650861;84;21048;-80
2021/12/27 08:51:07;;;;;;;63.10;25.48;;;;;;;-12.97;100.00;101789.41;1667900;84;21075;-79
2021/12/27 08:53:34;;;;;;;77.72;30.80;;;;;;;-12.91;100.00;101789.66;1655797;85;22012;-78
2021/12/27 08:56:02;;;;;;;84.83;38.75;;;;;;;-12.79;100.00;101785.14;1681994;84;21061;-78
2021/12/27 08:58:30;;;;;;;80.97;35.52;;;;;;;-12.64;100.00;101784.86;1652210;86;21173;-77
2021/12/27 09:00:57;;;;;;;77.20;29.63;;;;;;;-12.53;100.00;101786.53;1675446;84;21184;-79
2021/12/27 09:03:24;;;;;;;60.03;26.85;;;;;;;-12.47;100.00;101789.68;1668534;85;21017;-79
2021/12/27 09:05:52;;;;;;;66.67;26.90;;;;;;;-12.46;100.00;101787.25;1679506;84;21103;-78
2021/12/27 09:08:19;;;;;;;60.70;25.57;;;;;;;-12.40;100.00;101791.62;1683024;84;21556;-81
2021/12/27 09:10:46;;;;;;;65.90;27.62;;;;;;;-12.38;100.00;101788.37;1668168;84;21102;-77
2021/12/27 09:13:12;;;;;;;70.75;31.30;;;;;;;-12.33;100.00;101787.29;1670029;85;21060;-77
2021/12/27 09:15:39;;;;;;;71.53;29.23;;;;;;;-12.28;100.00;101791.23;1672723;84;21072;-77
2021/12/27 09:18:06;;;;;;;102.60;40.85;;;;;;;-12.24;100.00;101793.08;1653522;84;21091;-77
2021/12/27 09:20:34;;;;;;;94.55;38.67;;;;;;;-12.17;100.00;101791.62;1651847;86;21861;-79
2021/12/27 09:23:03;;;;;;;94.92;37.85;;;;;;;-12.17;100.00;101791.25;1645745;85;22191;-77
2021/12/27 09:25:30;;;;;;;86.25;33.53;;;;;;;-12.15;100.00;101794.67;1654573;84;22031;-79
2021/12/27 09:27:57;;;;;;;88.37;36.23;;;;;;;-12.13;100.00;101794.31;1635109;84;21126;-78
2021/12/27 09:30:25;;;;;;;89.87;34.67;;;;;;;-12.05;100.00;101795.87;1693766;83;21121;-77
2021/12/27 09:32:53;;;;;;;62.75;26.60;;;;;;;-11.96;100.00;101795.30;1690138;83;21052;-81
2021/12/27 09:35:20;;;;;;;68.42;27.42;;;;;;;-11.84;100.00;101799.53;1694585;83;21556;-77
2021/12/27 09:37:47;;;;;;;78.28;30.23;;;;;;;-11.69;100.00;101800.45;1662409;84;21041;-78
2021/12/27 09:40:15;;;;;;;76.53;30.10;;;;;;;-11.54;100.00;101798.05;1689628;83;21067;-78
2021/12/27 09:42:43;;;;;;;81.32;34.20;;;;;;;-11.45;100.00;101802.11;1657779;83;21054;-77
2021/12/27 09:45:10;;;;;;;78.90;32.40;;;;;;;-11.34;100.00;101797.48;1662620;83;21082;-77
2021/12/27 09:47:40;;;;;;;80.80;32.60;;;;;;;-11.29;100.00;101799.32;1638928;85;21093;-77
2021/12/27 09:50:12;;;;;;;76.82;32.13;;;;;;;-11.28;100.00;101800.20;1642409;86;21091;-78
2021/12/27 09:52:40;;;;;;;66.10;28.42;;;;;;;-11.28;100.00;101798.94;1640473;85;21114;-79
2021/12/27 09:55:07;;;;;;;74.85;31.20;;;;;;;-11.23;100.00;101794.06;1672015;84;21045;-83
2021/12/27 09:57:34;;;;;;;58.17;25.40;;;;;;;-11.29;100.00;101797.22;1668163;84;21191;-84
2021/12/27 10:00:01;;;;;;;71.95;31.35;;;;;;;-11.23;100.00;101802.45;1677226;83;21965;-85
2021/12/27 10:02:29;;;;;;;61.58;28.52;;;;;;;-11.16;100.00;101800.59;1653226;84;21563;-81
2021/12/27 10:04:57;;;;;;;72.75;28.98;;;;;;;-11.13;100.00;101802.34;1685615;83;21197;-81
2021/12/27 10:07:25;;;;;;;58.50;26.82;;;;;;;-11.12;100.00;101804.94;1648059;84;21124;-77
2021/12/27 10:09:54;;;;;;;64.60;28.12;;;;;;;-11.09;100.00;101802.92;1678628;84;21115;-77
2021/12/27 10:12:22;;;;;;;78.92;34.10;;;;;;;-11.08;100.00;101801.24;1650799;85;21154;-78
2021/12/27 10:15:03;;;;;;;69.42;31.90;;;;;;;-11.12;100.00;101811.61;1653883;85;21036;-77
2021/12/27 10:17:34;;;;;;;76.67;30.80;;;;;;;-11.14;100.00;101815.34;1648905;84;25710;-82
2021/12/27 10:20:16;;;;;;;85.70;37.13;;;;;;;-11.15;100.00;101822.84;1652500;85;21154;-76
2021/12/27 10:22:47;;;;;;;71.62;32.33;;;;;;;-11.21;100.00;101818.45;1642646;85;21100;-76
2021/12/27 10:25:19;;;;;;;112.37;42.43;;;;;;;-11.35;100.00;101825.94;1644303;85;21805;-81
2021/12/27 10:27:49;;;;;;;98.58;37.35;;;;;;;-11.54;100.00;101822.78;1635795;86;21052;-77
2021/12/27 10:30:23;;;;;;;82.45;37.20;;;;;;;-11.65;100.00;101824.05;1666383;83;21080;-76
2021/12/27 10:33:07;;;;;;;80.42;34.78;;;;;;;-11.74;100.00;101825.45;1655671;84;21169;-78
2021/12/27 10:35:39;;;;;;;63.30;27.67;;;;;;;-11.84;100.00;101828.42;1673654;83;21023;-76
2021/12/27 10:38:26;;;;;;;65.32;25.77;;;;;;;-11.90;100.00;101826.95;1669661;84;21873;-77
2021/12/27 10:41:12;;;;;;;57.17;23.42;;;;;;;-11.91;100.00;101826.49;1652627;84;21132;-77
2021/12/27 10:43:44;;;;;;;65.65;27.50;;;;;;;-11.94;100.00;101817.19;1668766;84;21723;-76
2021/12/27 10:46:20;;;;;;;66.67;25.50;;;;;;;-11.88;100.00;101830.36;1677578;83;21031;-76
2021/12/27 10:48:57;;;;;;;67.62;27.55;;;;;;;-11.79;100.00;101828.19;1636438;85;21119;-78
2021/12/27 10:51:27;;;;;;;66.50;29.07;;;;;;;-11.67;100.00;101828.18;1644505;85;21071;-77
2021/12/27 10:53:58;;;;;;;76.62;30.57;;;;;;;-11.62;100.00;101829.19;1617946;87;21054;-76
2021/12/27 10:56:30;;;;;;;75.22;31.35;;;;;;;-11.54;100.00;101837.02;1594901;88;21084;-75
2021/12/27 10:59:00;;;;;;;93.27;34.08;;;;;;;-11.51;100.00;101835.47;1668124;83;21025;-76
2021/12/27 11:01:31;;;;;;;270.93;69.17;;;;;;;-11.50;100.00;101832.16;1640317;84;21230;-79
2021/12/27 11:04:02;;;;;;;745.92;176.18;;;;;;;-11.50;100.00;101830.89;1650881;85;21193;-77
2021/12/27 11:06:33;;;;;;;572.25;129.50;;;;;;;-11.52;100.00;101833.75;1640732;84;21660;-77